Time;durP1;ratioP1;P1;durP2;ratioP2;P2;SDS_P1;SDS_P2;PMS_P1;PMS_P2;Temp;Humidity;BMP_temperature;BMP_pressure;BME280_temperature;BME280_humidity;BME280_pressure;Samples;Min_cycle;Max_cycle;Signal;HPM_P1;HPM_P2
2023/10/17 00:00:57;;;;;;;10.15;4.80;;;;;;;8.30;100.00;101661.25;5012237;28;20060;-77
2023/10/17 00:03:24;;;;;;;9.90;4.50;;;;;;;8.43;100.00;101629.28;4996331;28;20116;-77
2023/10/17 00:05:51;;;;;;;13.05;5.20;;;;;;;8.77;100.00;101625.28;5013653;28;20033;-78
2023/10/17 00:08:17;;;;;;;9.88;4.80;;;;;;;8.84;100.00;101672.63;5013694;28;20026;-78
2023/10/17 00:10:45;;;;;;;8.70;5.03;;;;;;;9.12;100.00;101680.44;4996558;28;20026;-78
2023/10/17 00:13:31;;;;;;;9.43;5.10;;;;;;;8.30;100.00;101587.78;5011974;28;20069;-78
2023/10/17 00:15:58;;;;;;;7.70;4.72;;;;;;;9.06;100.00;101667.72;5012607;28;20133;-77
2023/10/17 00:18:25;;;;;;;8.15;4.22;;;;;;;8.88;100.00;101669.28;5013189;28;20038;-78
2023/10/17 00:20:53;;;;;;;7.28;3.25;;;;;;;8.85;100.00;101684.50;4994490;28;20038;-79
2023/10/17 00:23:22;;;;;;;8.48;2.67;;;;;;;8.43;100.00;101624.22;5008222;28;20054;-79
2023/10/17 00:25:51;;;;;;;6.82;2.88;;;;;;;8.71;100.00;101697.09;5032684;28;20026;-80
2023/10/17 00:28:22;;;;;;;4.40;2.28;;;;;;;8.62;100.00;101700.38;5032523;28;20040;-79
2023/10/17 00:30:51;;;;;;;8.05;3.42;;;;;;;8.21;100.00;101628.22;5014765;28;20040;-78
2023/10/17 00:33:20;;;;;;;12.93;4.20;;;;;;;8.83;100.00;101687.03;5032580;28;20473;-82
2023/10/17 00:35:47;;;;;;;10.23;3.30;;;;;;;8.65;100.00;101676.75;5032631;28;20427;-81
2023/10/17 00:38:15;;;;;;;12.80;3.28;;;;;;;8.52;100.00;101698.63;5014830;28;20037;-78
2023/10/17 00:40:49;;;;;;;10.40;2.85;;;;;;;8.16;100.00;101665.31;5014732;28;20044;-79
2023/10/17 00:43:15;;;;;;;9.23;2.63;;;;;;;8.45;100.00;101684.22;5015687;28;20029;-77
2023/10/17 00:45:45;;;;;;;7.22;3.03;;;;;;;8.12;100.00;101663.59;5031024;28;20411;-75
2023/10/17 00:48:18;;;;;;;14.35;3.20;;;;;;;7.75;100.00;101647.22;5031497;28;20036;-76
2023/10/17 00:50:46;;;;;;;7.90;2.92;;;;;;;8.30;100.00;101704.34;5030877;28;20033;-75
2023/10/17 00:53:12;;;;;;;8.80;2.85;;;;;;;8.38;100.00;101610.63;5032608;28;20046;-74
2023/10/17 00:55:38;;;;;;;8.00;2.88;;;;;;;8.67;100.00;101657.34;5015148;28;20856;-75
2023/10/17 00:58:06;;;;;;;7.95;3.00;;;;;;;8.30;100.00;101671.41;5014672;28;20088;-76
2023/10/17 01:00:39;;;;;;;9.10;3.00;;;;;;;8.04;100.00;101607.00;5032235;28;20029;-76
2023/10/17 01:03:10;;;;;;;8.70;3.75;;;;;;;7.94;100.00;101592.56;5015022;28;20100;-76
2023/10/17 01:08:39;;;;;;;10.48;3.45;;;;;;;8.82;100.00;101659.09;5031295;28;20044;-78
2023/10/17 01:11:16;;;;;;;7.03;3.42;;;;;;;8.02;100.00;101600.22;5012883;28;20029;-78
2023/10/17 01:13:41;;;;;;;7.10;3.60;;;;;;;8.77;100.00;101668.38;5014287;28;20762;-75
2023/10/17 01:16:15;;;;;;;7.97;3.80;;;;;;;8.84;100.00;101667.56;5030963;28;20041;-78
2023/10/17 01:18:44;;;;;;;9.40;3.60;;;;;;;8.23;100.00;101611.34;5031486;28;20032;-75
2023/10/17 01:21:20;;;;;;;10.00;4.00;;;;;;;8.14;100.00;101625.63;5014278;28;20029;-76
2023/10/17 01:23:50;;;;;;;9.48;3.72;;;;;;;8.41;100.00;101628.41;4996187;28;20073;-80
2023/10/17 01:26:20;;;;;;;10.85;3.90;;;;;;;8.78;100.00;101665.84;5011810;28;20048;-78
2023/10/17 01:28:47;;;;;;;7.57;3.92;;;;;;;8.35;100.00;101631.75;4994608;28;20026;-77
2023/10/17 01:31:22;;;;;;;7.88;3.38;;;;;;;8.61;100.00;101705.47;5012156;28;20030;-78
2023/10/17 01:33:53;;;;;;;8.68;3.65;;;;;;;8.73;100.00;101705.56;4994361;28;20494;-76
2023/10/17 01:36:19;;;;;;;10.07;3.53;;;;;;;9.08;100.00;101705.78;5007431;28;20065;-76
2023/10/17 01:38:46;;;;;;;9.07;3.80;;;;;;;8.62;100.00;101707.13;5011228;28;20066;-75
2023/10/17 01:41:12;;;;;;;7.38;3.78;;;;;;;8.75;100.00;101708.94;5011492;28;20036;-76
2023/10/17 01:43:40;;;;;;;11.77;3.97;;;;;;;8.07;100.00;101629.78;4994164;28;20113;-75
2023/10/17 01:46:09;;;;;;;4.75;3.42;;;;;;;7.61;100.00;101641.16;5010884;28;20105;-76
2023/10/17 01:48:35;;;;;;;8.55;3.53;;;;;;;8.00;100.00;101704.03;5016473;28;20045;-76
2023/10/17 01:51:07;;;;;;;10.75;3.92;;;;;;;8.96;100.00;101704.00;5009564;28;20056;-76
2023/10/17 01:53:33;;;;;;;9.15;3.60;;;;;;;8.35;100.00;101702.72;4993726;28;20426;-77
2023/10/17 01:56:32;;;;;;;13.40;3.70;;;;;;;8.39;100.00;101642.75;5010870;28;20096;-77
2023/10/17 01:58:51;;;;;;;8.70;4.00;;;;;;;7.87;100.00;101628.75;5006932;28;20428;-80
2023/10/17 02:01:17;;;;;;;11.77;4.43;;;;;;;8.42;100.00;101711.19;5010716;28;20033;-78
2023/10/17 02:03:46;;;;;;;12.05;4.53;;;;;;;8.07;100.00;101685.50;4993792;28;20034;-78
2023/10/17 02:06:16;;;;;;;10.75;3.95;;;;;;;8.34;100.00;101708.59;5009706;28;20034;-79
2023/10/17 02:08:44;;;;;;;11.35;4.38;;;;;;;8.13;100.00;101708.38;5010165;28;20030;-78
2023/10/17 02:11:43;;;;;;;9.35;4.15;;;;;;;8.84;100.00;101698.84;5011017;28;20021;-77
2023/10/17 02:13:59;;;;;;;8.80;3.90;;;;;;;7.92;100.00;101634.72;5007615;28;20566;-80
2023/10/17 02:16:29;;;;;;;8.90;3.53;;;;;;;8.34;100.00;101622.44;5010796;28;20029;-77
2023/10/17 02:18:55;;;;;;;6.03;3.08;;;;;;;8.67;100.00;101700.44;5010811;28;20053;-80
2023/10/17 02:21:21;;;;;;;7.32;3.30;;;;;;;8.63;100.00;101707.19;4993547;28;20480;-80
2023/10/17 02:23:50;;;;;;;5.93;2.90;;;;;;;8.27;100.00;101635.06;5026179;28;20038;-77
2023/10/17 02:26:21;;;;;;;12.23;3.28;;;;;;;8.35;100.00;101697.63;5029708;28;20051;-79
2023/10/17 02:28:59;;;;;;;7.47;2.15;;;;;;;8.25;100.00;101635.06;5026119;28;20500;-77
2023/10/17 02:31:29;;;;;;;6.25;2.70;;;;;;;8.84;100.00;101687.84;5025895;28;20042;-79
2023/10/17 02:33:56;;;;;;;6.95;2.53;;;;;;;8.53;100.00;101610.75;5012497;28;20120;-78
2023/10/17 02:36:22;;;;;;;9.60;2.95;;;;;;;9.15;100.00;101693.13;5030168;28;20036;-78
2023/10/17 02:38:47;;;;;;;8.80;3.15;;;;;;;7.81;100.00;101636.28;5028123;28;20091;-79
2023/10/17 02:41:18;;;;;;;11.43;2.92;;;;;;;6.87;100.00;101602.31;5009915;28;20041;-78
2023/10/17 02:43:52;;;;;;;9.93;3.17;;;;;;;7.60;100.00;101710.34;5030596;28;20472;-77
2023/10/17 02:46:18;;;;;;;11.68;3.17;;;;;;;7.10;100.00;101649.78;5012517;28;20060;-77
2023/10/17 02:48:45;;;;;;;9.00;3.53;;;;;;;7.39;100.00;101696.56;5028996;28;20029;-77
2023/10/17 02:51:54;;;;;;;10.32;3.78;;;;;;;6.98;100.00;101674.09;5030309;28;20123;-77
2023/10/17 02:54:05;;;;;;;15.52;3.97;;;;;;;7.00;100.00;101739.84;5021748;28;20044;-78
2023/10/17 02:56:36;;;;;;;10.07;3.75;;;;;;;7.08;100.00;101704.56;5012306;28;20056;-78
2023/10/17 02:59:04;;;;;;;11.00;3.43;;;;;;;7.18;100.00;101746.84;5013197;28;20455;-78
2023/10/17 03:01:31;;;;;;;9.35;3.85;;;;;;;6.87;100.00;101756.50;5013146;28;20292;-78
2023/10/17 03:04:09;;;;;;;6.85;3.38;;;;;;;7.56;100.00;101756.69;5029361;28;20026;-77
2023/10/17 03:06:40;;;;;;;9.38;3.60;;;;;;;7.19;100.00;101738.44;5011950;28;20033;-75
2023/10/17 03:09:43;;;;;;;8.35;4.15;;;;;;;6.72;100.00;101761.31;5011761;28;20098;-76
2023/10/17 03:17:15;;;;;;;9.63;3.78;;;;;;;6.35;100.00;101700.03;5025198;28;20087;-74
2023/10/17 03:19:41;;;;;;;10.18;3.60;;;;;;;6.72;100.00;101771.44;5028822;28;20095;-74
2023/10/17 03:22:16;;;;;;;9.15;3.47;;;;;;;7.14;100.00;101776.31;5027307;28;20462;-76
2023/10/17 03:24:44;;;;;;;10.68;3.72;;;;;;;6.57;100.00;101713.06;5028830;28;20038;-75
2023/10/17 03:27:11;;;;;;;11.18;4.38;;;;;;;6.80;100.00;101772.41;5028416;28;20049;-75
2023/10/17 03:29:41;;;;;;;9.25;3.72;;;;;;;6.90;100.00;101763.28;5029278;28;20056;-75
2023/10/17 03:32:11;;;;;;;7.63;3.58;;;;;;;6.84;100.00;101768.25;5028060;28;20026;-76
2023/10/17 03:34:37;;;;;;;7.82;4.05;;;;;;;6.91;100.00;101743.06;5010832;28;20029;-73
2023/10/17 03:39:52;;;;;;;8.65;3.70;;;;;;;6.98;100.00;101722.13;5030966;28;20116;-74
2023/10/17 03:45:13;;;;;;;8.30;3.95;;;;;;;7.06;100.00;101736.56;5032328;28;20040;-75
2023/10/17 03:47:47;;;;;;;13.90;5.90;;;;;;;6.70;100.00;101714.94;5031068;28;20033;-75
2023/10/17 03:50:31;;;;;;;16.10;5.93;;;;;;;6.33;100.00;101674.78;5031930;28;20496;-76
2023/10/17 03:53:15;;;;;;;14.95;7.05;;;;;;;7.14;100.00;101755.22;5015215;28;20034;-76
2023/10/17 03:55:43;;;;;;;9.90;6.43;;;;;;;6.83;100.00;101754.75;5038682;28;20037;-76
2023/10/17 04:00:54;;;;;;;;;;;;;;;7.06;100.00;101746.66;5033194;28;20112;-77
2023/10/17 04:03:22;;;;;;;5.55;3.88;;;;;;;6.88;100.00;101754.81;5032687;28;19924;-77
2023/10/17 04:05:50;;;;;;;9.43;3.80;;;;;;;7.19;100.00;101763.75;5033005;28;20115;-76
2023/10/17 04:08:26;;;;;;;10.88;3.83;;;;;;;7.41;100.00;101756.44;5032912;28;20063;-76
2023/10/17 04:11:37;;;;;;;8.70;3.95;;;;;;;7.45;100.00;101763.25;5015325;28;20176;-76
2023/10/17 04:13:39;;;;;;;9.48;4.38;;;;;;;7.31;100.00;101718.38;5014330;28;20049;-77
2023/10/17 04:16:09;;;;;;;12.05;4.07;;;;;;;6.99;100.00;101674.97;5028451;28;20060;-76
2023/10/17 04:18:38;;;;;;;5.90;3.85;;;;;;;6.89;100.00;101665.53;5012633;28;20088;-75
2023/10/17 04:21:17;;;;;;;9.20;4.07;;;;;;;6.84;100.00;101687.34;5014042;28;20124;-76
2023/10/17 04:23:44;;;;;;;8.68;4.05;;;;;;;7.43;100.00;101756.47;5031061;28;20145;-74
2023/10/17 04:26:17;;;;;;;10.00;4.40;;;;;;;7.22;100.00;101784.84;5013484;28;20048;-78
2023/10/17 04:28:49;;;;;;;10.30;4.90;;;;;;;6.41;100.00;101756.56;5031487;28;20085;-76
2023/10/17 04:31:22;;;;;;;9.73;3.90;;;;;;;6.73;100.00;101712.50;5031718;28;20033;-75
2023/10/17 04:34:06;;;;;;;12.23;4.95;;;;;;;6.06;100.00;101685.25;5032030;28;20045;-72
2023/10/17 04:36:39;;;;;;;21.13;5.20;;;;;;;7.10;100.00;101809.97;5031404;28;20025;-80
2023/10/17 04:39:18;;;;;;;9.23;4.60;;;;;;;6.20;100.00;101767.97;5014828;28;20093;-75
2023/10/17 04:44:17;;;;;;;6.90;3.90;;;;;;;6.00;100.00;101808.81;5030856;28;20029;-75
2023/10/17 04:47:07;;;;;;;11.20;4.20;;;;;;;6.14;100.00;101864.63;5030643;28;20033;-76
2023/10/17 04:49:36;;;;;;;9.82;3.85;;;;;;;6.18;100.00;101860.50;5031404;28;20029;-77
2023/10/17 04:52:06;;;;;;;7.38;3.78;;;;;;;6.15;100.00;101780.50;5032093;28;20025;-76
2023/10/17 04:57:09;;;;;;;13.18;4.13;;;;;;;5.75;100.00;101793.97;5031749;28;20112;-77
2023/10/17 06:18:26;;;;;;;12.90;5.78;;;;;;;11.93;100.00;101563.16;5029410;28;20047;-76
2023/10/17 06:21:06;;;;;;;8.70;3.90;;;;;;;12.00;100.00;101575.00;5012687;28;20037;-76
2023/10/17 06:34:23;;;;;;;11.02;6.00;;;;;;;12.51;100.00;101475.03;5029715;28;20068;-77
2023/10/17 06:36:59;;;;;;;11.52;5.68;;;;;;;12.37;100.00;101476.91;5029860;28;20037;-77
2023/10/17 06:39:27;;;;;;;12.10;5.47;;;;;;;12.89;100.00;101540.94;5030047;28;20041;-77
2023/10/17 06:41:58;;;;;;;12.38;5.18;;;;;;;13.57;100.00;101522.97;5027977;28;20048;-76
2023/10/17 06:44:23;;;;;;;11.70;4.70;;;;;;;13.35;100.00;101505.44;5011655;28;20032;-75
2023/10/17 06:46:57;;;;;;;8.77;4.97;;;;;;;13.84;100.00;101445.81;5029070;28;20114;-74
2023/10/17 06:54:46;;;;;;;14.18;4.53;;;;;;;14.60;100.00;101490.47;5028669;28;20420;-75
2023/10/17 06:57:20;;;;;;;;;;;;;;;14.12;100.00;101497.34;5011893;28;20080;-75
2023/10/17 06:59:52;;;;;;;17.67;4.60;;;;;;;14.49;100.00;101451.44;5029170;28;19921;-75
2023/10/17 07:02:27;;;;;;;8.18;4.38;;;;;;;14.08;100.00;101482.94;5029132;28;20033;-75
2023/10/17 07:04:55;;;;;;;9.73;4.55;;;;;;;14.61;100.00;101471.69;5029008;28;20439;-74
2023/10/17 07:07:22;;;;;;;15.32;4.18;;;;;;;14.24;100.00;101404.19;5029054;28;20033;-74
2023/10/17 07:10:16;;;;;;;14.30;4.78;;;;;;;14.87;100.00;101461.75;5028473;28;20032;-75
2023/10/17 07:12:38;;;;;;;12.25;4.25;;;;;;;15.26;100.00;101449.75;5027585;28;20029;-74
2023/10/17 07:15:12;;;;;;;8.40;3.35;;;;;;;15.71;100.00;101428.13;5029214;28;20112;-75
2023/10/17 07:17:43;;;;;;;11.05;3.17;;;;;;;15.77;100.00;101424.59;5011250;28;20400;-75
2023/10/17 07:20:13;;;;;;;6.53;2.97;;;;;;;15.34;100.00;101420.50;5029288;28;20061;-77
2023/10/17 07:22:41;;;;;;;4.93;1.80;;;;;;;15.28;100.00;101409.53;5028019;28;20460;-76
2023/10/17 07:25:16;;;;;;;13.73;4.00;;;;;;;15.55;100.00;101342.22;5028853;28;20104;-76
2023/10/17 07:27:44;;;;;;;7.03;2.30;;;;;;;15.78;100.00;101405.75;5027498;28;20408;-74
2023/10/17 07:30:13;;;;;;;7.22;2.33;;;;;;;15.82;100.00;101374.00;5010607;28;20120;-73
2023/10/17 07:32:45;;;;;;;6.75;1.70;;;;;;;15.84;100.00;101365.41;5010793;28;20026;-73
2023/10/17 07:35:10;;;;;;;;;;;;;;;16.42;100.00;101377.38;5027701;28;20037;-73
2023/10/17 07:37:48;;;;;;;5.57;1.80;;;;;;;16.09;100.00;101329.59;5029037;28;19917;-74
2023/10/17 07:42:42;;;;;;;9.18;1.98;;;;;;;16.04;100.00;101334.06;5028378;28;20476;-74
2023/10/17 07:45:14;;;;;;;7.72;2.90;;;;;;;16.45;100.00;101351.63;5011021;28;20068;-76
2023/10/17 07:47:51;;;;;;;8.07;2.42;;;;;;;16.49;100.00;101358.41;5009848;28;20499;-73
2023/10/17 07:50:16;;;;;;;6.28;1.98;;;;;;;16.18;100.00;101283.16;5028693;28;20396;-73
2023/10/17 07:52:43;;;;;;;6.53;2.58;;;;;;;16.58;100.00;101340.13;5010165;28;20033;-73
2023/10/17 07:55:34;;;;;;;7.93;1.80;;;;;;;16.73;100.00;101357.66;5028378;28;20030;-74
2023/10/17 07:58:06;;;;;;;5.57;1.48;;;;;;;16.06;100.00;101260.44;5010499;28;20128;-74
2023/10/17 08:00:35;;;;;;;5.60;1.10;;;;;;;15.79;100.00;101381.75;5010952;28;20396;-73
2023/10/17 08:03:14;;;;;;;5.03;1.17;;;;;;;16.39;100.00;101318.44;5028172;28;20029;-73
2023/10/17 08:08:33;;;;;;;3.72;1.40;;;;;;;16.73;100.00;101303.72;5027179;28;20515;-74
2023/10/17 08:10:59;;;;;;;8.18;1.58;;;;;;;16.37;100.00;101295.41;5028466;28;20080;-73
2023/10/17 08:13:25;;;;;;;10.23;2.88;;;;;;;15.75;100.00;101272.47;5028179;28;20566;-73
2023/10/17 08:15:53;;;;;;;7.43;1.50;;;;;;;16.19;100.00;101308.78;5010477;28;20030;-73
2023/10/17 08:18:23;;;;;;;5.03;1.40;;;;;;;16.71;100.00;101356.00;5028189;28;20033;-73
2023/10/17 08:23:25;;;;;;;4.82;1.40;;;;;;;15.92;100.00;101317.28;5031510;28;20184;-75
2023/10/17 08:25:59;;;;;;;3.78;1.00;;;;;;;16.26;100.00;101317.16;5032242;28;20044;-72
2023/10/17 08:28:50;;;;;;;6.55;1.38;;;;;;;16.05;100.00;101302.38;5014359;28;20037;-72
2023/10/17 08:31:36;;;;;;;4.40;1.45;;;;;;;17.25;100.00;101277.13;5032049;28;20089;-76
2023/10/17 08:39:26;;;;;;;5.90;1.77;;;;;;;17.52;100.00;101309.63;5030498;28;20077;-74
2023/10/17 08:42:14;;;;;;;3.80;1.65;;;;;;;17.61;100.00;101319.59;5013779;28;20041;-74
2023/10/17 08:44:47;;;;;;;1.77;0.80;;;;;;;17.38;100.00;101303.25;5031460;28;20158;-73
2023/10/17 08:47:16;;;;;;;2.83;1.00;;;;;;;17.58;100.00;101300.84;5013461;28;20461;-76
2023/10/17 08:49:48;;;;;;;7.30;1.10;;;;;;;17.80;100.00;101302.63;5013810;28;20025;-75
2023/10/17 08:52:24;;;;;;;5.43;1.10;;;;;;;16.89;100.00;101309.19;5027619;28;20029;-76
2023/10/17 08:54:51;;;;;;;2.55;1.00;;;;;;;17.68;100.00;101308.19;5031278;28;20029;-75
2023/10/17 08:57:17;;;;;;;6.97;1.17;;;;;;;17.42;100.00;101245.69;5013677;28;20084;-75
2023/10/17 09:05:13;;;;;;;3.65;1.13;;;;;;;17.37;100.00;101307.56;5030298;28;20109;-73
2023/10/17 09:07:43;;;;;;;2.50;1.02;;;;;;;17.44;100.00;101296.16;5013442;28;20030;-73
2023/10/17 09:10:36;;;;;;;4.25;0.88;;;;;;;17.50;100.00;101295.13;5013477;28;20490;-75
2023/10/17 09:15:48;;;;;;;8.75;1.10;;;;;;;17.63;100.00;101224.38;5030128;28;20091;-74
2023/10/17 09:18:14;;;;;;;2.63;0.90;;;;;;;17.76;100.00;101269.31;5030044;28;20083;-76
2023/10/17 09:20:39;;;;;;;6.32;0.90;;;;;;;17.58;100.00;101260.53;5031030;28;20037;-77
2023/10/17 09:23:27;;;;;;;2.92;0.77;;;;;;;17.32;100.00;101279.44;4681323;28;10000494;-72
2023/10/17 09:25:58;;;;;;;2.35;0.75;;;;;;;18.13;100.00;101246.44;5013070;28;20107;-75
2023/10/17 09:28:28;;;;;;;3.53;0.80;;;;;;;18.23;100.00;101250.34;5029591;28;20029;-76
2023/10/17 09:31:03;;;;;;;2.13;0.95;;;;;;;18.36;100.00;101182.00;5027231;28;20065;-73
2023/10/17 09:33:36;;;;;;;4.53;1.10;;;;;;;17.81;100.00;101195.34;5027833;28;20035;-71
2023/10/17 09:36:06;;;;;;;3.20;1.15;;;;;;;18.08;100.00;101238.88;5026905;28;20029;-73
2023/10/17 09:38:33;;;;;;;3.65;0.93;;;;;;;18.58;100.00;101233.53;5029900;28;20034;-77
2023/10/17 09:41:00;;;;;;;2.80;0.90;;;;;;;17.60;100.00;101198.75;5011638;28;20037;-74
2023/10/17 09:43:26;;;;;;;5.05;1.10;;;;;;;18.65;100.00;101217.75;5028810;28;20060;-75
2023/10/17 09:45:55;;;;;;;3.95;0.98;;;;;;;18.61;100.00;101153.53;5012187;28;20534;-73
2023/10/17 09:48:35;;;;;;;2.45;0.90;;;;;;;18.12;100.00;101167.56;5030345;28;20034;-75
2023/10/17 09:51:03;;;;;;;3.78;0.93;;;;;;;18.47;100.00;101210.78;5009471;28;20029;-74
2023/10/17 09:53:34;;;;;;;3.92;1.10;;;;;;;18.86;100.00;101152.41;5012678;28;20025;-73
2023/10/17 09:56:06;;;;;;;3.00;0.73;;;;;;;18.88;100.00;101209.06;5030742;28;20028;-73
2023/10/17 09:58:36;;;;;;;4.17;0.90;;;;;;;19.80;100.00;101171.41;5012816;28;20083;-74
2023/10/17 10:01:11;;;;;;;2.53;0.60;;;;;;;18.72;100.00;101112.69;5030308;28;20089;-74
2023/10/17 10:03:37;;;;;;;2.20;0.75;;;;;;;17.90;100.00;101189.88;5012089;28;20045;-73
2023/10/17 10:06:30;;;;;;;2.90;0.70;;;;;;;18.57;100.00;101190.63;5012389;28;20029;-73
2023/10/17 10:09:18;;;;;;;8.00;0.90;;;;;;;18.40;100.00;101180.16;5030581;28;20032;-73
2023/10/17 10:11:53;;;;;;;2.13;0.68;;;;;;;18.68;100.00;101185.84;5017735;28;20120;-73
2023/10/17 10:14:27;;;;;;;3.38;0.80;;;;;;;18.58;100.00;101182.81;5029313;28;20048;-77
2023/10/17 10:16:54;;;;;;;2.25;1.05;;;;;;;18.38;100.00;101177.63;5030232;28;20037;-73
2023/10/17 10:19:23;;;;;;;1.75;0.63;;;;;;;18.67;100.00;101159.28;5030068;28;20061;-74
2023/10/17 10:21:58;;;;;;;4.78;0.77;;;;;;;18.32;100.00;101171.91;5011990;28;20029;-76
2023/10/17 10:24:29;;;;;;;2.78;0.77;;;;;;;18.05;100.00;101171.25;5012328;28;20079;-74
2023/10/17 10:27:25;;;;;;;3.43;1.00;;;;;;;18.75;100.00;101171.81;5030390;28;20072;-76
2023/10/17 10:29:53;;;;;;;3.90;1.10;;;;;;;18.90;100.00;101160.84;5012529;28;20284;-75
2023/10/17 10:32:24;;;;;;;2.55;0.88;;;;;;;18.47;100.00;101156.69;5012040;28;20037;-75
2023/10/17 10:34:50;;;;;;;4.75;0.82;;;;;;;18.18;100.00;101146.72;5011660;28;20080;-80
2023/10/17 10:37:16;;;;;;;4.10;0.70;;;;;;;17.59;100.00;101153.38;5008879;28;20507;-74
2023/10/17 10:40:10;;;;;;;4.43;0.90;;;;;;;18.65;100.00;101148.19;5011776;28;20026;-75
2023/10/17 10:42:43;;;;;;;5.80;0.77;;;;;;;18.41;100.00;101145.75;5029542;28;20061;-76
2023/10/17 10:45:31;;;;;;;2.95;0.82;;;;;;;18.33;100.00;101138.34;5028713;28;20060;-77
2023/10/17 10:47:59;;;;;;;8.27;1.10;;;;;;;18.59;100.00;101084.03;5028250;28;20025;-74
2023/10/17 10:50:30;;;;;;;3.03;0.60;;;;;;;18.46;100.00;101139.53;5012019;28;20049;-74
2023/10/17 10:52:59;;;;;;;3.60;0.80;;;;;;;19.20;100.00;101109.69;5011754;28;20480;-76
2023/10/17 10:55:26;;;;;;;3.03;0.73;;;;;;;18.23;100.00;101052.09;5011178;28;20561;-74
2023/10/17 10:57:52;;;;;;;4.13;0.93;;;;;;;18.70;100.00;101105.00;5011325;28;20033;-74
2023/10/17 11:00:18;;;;;;;2.92;0.85;;;;;;;19.31;100.00;101097.16;5012103;28;20040;-73
2023/10/17 11:02:43;;;;;;;2.42;1.10;;;;;;;18.10;100.00;101035.50;5011291;28;20025;-76
2023/10/17 11:05:14;;;;;;;2.00;0.80;;;;;;;18.39;100.00;101073.72;5027746;28;20029;-74
2023/10/17 11:07:58;;;;;;;2.42;0.90;;;;;;;19.09;100.00;101027.69;5011849;28;20120;-74
2023/10/17 11:10:23;;;;;;;6.78;0.90;;;;;;;17.78;100.00;101097.72;5011222;28;20033;-74
2023/10/17 11:12:55;;;;;;;2.67;0.95;;;;;;;18.37;100.00;101098.69;5011454;28;20028;-74
2023/10/17 11:15:27;;;;;;;3.78;0.82;;;;;;;18.29;100.00;101066.44;5029150;28;20083;-73
2023/10/17 11:17:59;;;;;;;1.60;0.63;;;;;;;18.86;100.00;101067.38;5011569;28;20057;-75
2023/10/17 11:20:26;;;;;;;2.28;0.88;;;;;;;18.39;100.00;101011.91;5011460;28;20033;-74
2023/10/17 11:22:52;;;;;;;1.80;0.52;;;;;;;18.68;100.00;100984.88;5011151;28;20045;-73
2023/10/17 11:25:27;;;;;;;2.53;1.00;;;;;;;18.99;100.00;101045.28;5009181;28;20036;-73
2023/10/17 11:28:00;;;;;;;1.67;0.93;;;;;;;18.58;100.00;101027.44;5027669;28;20064;-75
2023/10/17 11:31:12;;;;;;;4.97;1.05;;;;;;;18.18;100.00;100979.38;5028938;28;20112;-72
2023/10/17 11:33:29;;;;;;;2.38;0.63;;;;;;;18.73;100.00;101032.75;5025145;28;20049;-73
2023/10/17 11:35:58;;;;;;;3.88;0.88;;;;;;;18.60;100.00;101026.44;5011347;28;20397;-77
2023/10/17 11:38:38;;;;;;;3.80;0.80;;;;;;;18.34;100.00;101023.31;5011078;28;20109;-74
2023/10/17 11:41:07;;;;;;;3.28;0.80;;;;;;;18.75;100.00;101017.22;5027517;28;20083;-75
2023/10/17 11:43:42;;;;;;;3.22;0.90;;;;;;;18.37;100.00;100963.94;5008012;28;20029;-75
2023/10/17 11:46:14;;;;;;;1.52;0.80;;;;;;;18.48;100.00;101036.47;5028899;28;20029;-74
2023/10/17 11:48:44;;;;;;;4.93;1.80;;;;;;;17.99;100.00;100976.75;5028201;28;20037;-73
2023/10/17 11:51:18;;;;;;;4.63;2.30;;;;;;;18.61;100.00;101023.00;5011032;28;20037;-74
2023/10/17 11:54:05;;;;;;;5.18;1.80;;;;;;;18.75;100.00;101030.94;5024760;28;20037;-73
2023/10/17 11:56:32;;;;;;;5.05;1.20;;;;;;;18.65;100.00;100961.84;5013213;28;20029;-73
2023/10/17 11:58:58;;;;;;;2.17;1.00;;;;;;;18.93;100.00;101004.34;5032213;28;20112;-74
2023/10/17 12:01:23;;;;;;;4.78;2.08;;;;;;;18.49;100.00;101008.06;5014599;28;20159;-73
2023/10/17 12:03:53;;;;;;;10.43;5.88;;;;;;;18.11;100.00;100972.81;5031619;28;20064;-74
2023/10/17 12:06:21;;;;;;;11.00;4.22;;;;;;;17.87;100.00;100956.66;5031744;28;20025;-73
2023/10/17 12:08:47;;;;;;;5.90;3.15;;;;;;;18.50;100.00;101030.34;5032163;28;20434;-73
2023/10/17 12:11:12;;;;;;;5.60;2.88;;;;;;;18.46;100.00;101025.41;5032296;28;20143;-73
2023/10/17 12:13:38;;;;;;;9.27;5.28;;;;;;;18.50;100.00;100963.38;5031852;28;20029;-75
2023/10/17 12:16:08;;;;;;;16.30;8.93;;;;;;;18.54;100.00;100970.06;5030929;28;20106;-73
2023/10/17 12:18:35;;;;;;;5.68;3.97;;;;;;;18.17;100.00;101026.59;5031924;28;20032;-73
2023/10/17 12:21:02;;;;;;;10.88;7.28;;;;;;;18.53;100.00;101030.22;5014292;28;20116;-73
2023/10/17 12:23:31;;;;;;;14.43;9.07;;;;;;;18.23;100.00;100977.44;5001133;28;20125;-73
2023/10/17 12:26:07;;;;;;;15.57;7.95;;;;;;;17.99;100.00;100973.31;5012013;28;20026;-76
2023/10/17 12:28:33;;;;;;;15.18;8.27;;;;;;;18.14;100.00;101034.47;5010868;28;20404;-74
2023/10/17 12:30:59;;;;;;;8.95;6.05;;;;;;;18.43;100.00;101026.38;4994401;28;20034;-75
2023/10/17 12:33:24;;;;;;;12.02;5.40;;;;;;;18.27;100.00;101004.72;4992545;28;20034;-73
2023/10/17 12:35:51;;;;;;;9.35;5.22;;;;;;;17.56;100.00;100963.16;5011477;28;20026;-75
2023/10/17 12:38:33;;;;;;;12.88;5.70;;;;;;;17.93;100.00;101025.06;5011150;28;20045;-77
2023/10/17 12:40:58;;;;;;;8.60;4.78;;;;;;;17.85;100.00;101030.50;4994108;28;20096;-73
2023/10/17 12:43:24;;;;;;;7.85;4.57;;;;;;;17.90;100.00;100973.72;4992800;28;20034;-82
2023/10/17 12:45:49;;;;;;;11.07;5.60;;;;;;;17.78;100.00;100958.78;4993595;28;20037;-74
2023/10/17 12:48:15;;;;;;;15.75;9.95;;;;;;;18.15;100.00;101025.84;4993597;28;20026;-73
2023/10/17 12:50:43;;;;;;;23.98;14.68;;;;;;;18.19;100.00;101023.06;5011276;28;20535;-72
2023/10/17 12:53:13;;;;;;;26.88;15.63;;;;;;;17.39;100.00;100970.69;4994198;28;20032;-74
2023/10/17 12:55:40;;;;;;;28.13;16.83;;;;;;;18.03;100.00;100992.88;5011325;28;20030;-74
2023/10/17 12:58:07;;;;;;;39.40;24.02;;;;;;;17.82;100.00;100997.22;5011850;28;20030;-78
2023/10/17 13:00:33;;;;;;;54.35;29.42;;;;;;;18.15;100.00;100988.06;4994151;28;20183;-74
2023/10/17 13:03:00;;;;;;;42.65;25.20;;;;;;;17.75;100.00;100930.59;4993207;28;20033;-73
2023/10/17 13:05:26;;;;;;;40.70;23.15;;;;;;;18.53;100.00;100978.69;5011427;28;20112;-73
2023/10/17 13:07:52;;;;;;;19.83;12.38;;;;;;;18.06;100.00;100949.81;5010490;28;20501;-75
2023/10/17 13:10:19;;;;;;;24.50;11.75;;;;;;;18.16;100.00;100903.94;5011214;28;20053;-73
2023/10/17 13:12:46;;;;;;;19.90;10.80;;;;;;;18.36;100.00;100946.84;4994152;28;20036;-73
2023/10/17 13:15:14;;;;;;;24.35;12.60;;;;;;;18.30;100.00;100914.47;4993444;28;20030;-73
2023/10/17 13:17:40;;;;;;;21.55;13.48;;;;;;;18.13;100.00;100946.09;4993631;28;20044;-73
2023/10/17 13:20:07;;;;;;;23.95;12.57;;;;;;;18.19;100.00;100896.09;4993072;28;20408;-76
2023/10/17 13:22:40;;;;;;;22.55;13.05;;;;;;;18.51;100.00;100936.72;4999826;28;20041;-74
2023/10/17 13:25:07;;;;;;;19.73;12.20;;;;;;;17.79;100.00;100916.72;5012324;28;20068;-76
2023/10/17 13:27:33;;;;;;;19.73;10.90;;;;;;;18.12;100.00;100943.59;5030968;28;20037;-74
2023/10/17 13:29:58;;;;;;;21.92;10.93;;;;;;;18.18;100.00;100948.50;5030746;28;20034;-75
2023/10/17 13:32:23;;;;;;;19.63;10.75;;;;;;;18.04;100.00;100889.06;5012836;28;20030;-73
2023/10/17 13:34:51;;;;;;;16.50;9.65;;;;;;;18.36;100.00;100950.22;5012613;28;20030;-74
2023/10/17 13:37:17;;;;;;;11.68;6.47;;;;;;;18.14;100.00;100963.19;5030012;28;20491;-74
2023/10/17 13:39:43;;;;;;;8.48;4.30;;;;;;;18.06;100.00;100967.03;5030789;28;20033;-76
2023/10/17 13:42:09;;;;;;;10.63;4.53;;;;;;;18.07;100.00;100968.69;5029953;28;20530;-75
2023/10/17 13:44:35;;;;;;;7.07;4.30;;;;;;;17.89;100.00;100954.88;5030605;28;20067;-74
2023/10/17 13:47:00;;;;;;;5.97;3.13;;;;;;;17.57;100.00;100913.41;5012779;28;20052;-74
2023/10/17 13:49:27;;;;;;;11.20;3.00;;;;;;;18.06;100.00;100985.84;5013178;28;20030;-73
2023/10/17 13:51:54;;;;;;;4.00;1.70;;;;;;;17.50;100.00;100927.41;5012739;28;20476;-73